createdAt,value
2022-10-01T00:01:09.266Z,98389.85
2022-10-01T00:03:48.032Z,98386.33
2022-10-01T00:06:20.226Z,98381.05
2022-10-01T00:08:50.109Z,98380.61
2022-10-01T00:11:21.565Z,98379.77
2022-10-01T00:13:51.503Z,98380.52
2022-10-01T00:16:22.318Z,98384.91
2022-10-01T00:18:53.061Z,98387.19
2022-10-01T00:21:23.534Z,98386.54
2022-10-01T00:23:55.636Z,98388.34
2022-10-01T00:26:31.444Z,98397.01
2022-10-01T00:29:04.276Z,98394.51
2022-10-01T00:31:35.120Z,98390.38
2022-10-01T00:34:04.666Z,98390.22
2022-10-01T00:36:35.157Z,98392.64
2022-10-01T00:39:07.457Z,98392.88
2022-10-01T00:41:37.567Z,98393.08
2022-10-01T00:44:28.220Z,98388.45
2022-10-01T00:47:01.643Z,98392.33
2022-10-01T00:49:33.326Z,98397.30
2022-10-01T00:52:04.767Z,98399.30
2022-10-01T00:54:37.622Z,98398.47
2022-10-01T00:57:09.115Z,98396.09
2022-10-01T00:59:38.661Z,98390.36
2022-10-01T01:02:07.711Z,98399.21
2022-10-01T01:04:39.469Z,98399.38
2022-10-01T01:07:10.240Z,98398.31
2022-10-01T01:09:41.311Z,98397.46
2022-10-01T01:12:17.570Z,98388.34
2022-10-01T01:14:54.258Z,98386.98
2022-10-01T01:17:24.666Z,98384.05
2022-10-01T01:20:05.023Z,98386.22
2022-10-01T01:22:36.628Z,98382.55
2022-10-01T01:25:10.982Z,98379.86
2022-10-01T01:27:42.872Z,98379.36
2022-10-01T01:30:13.771Z,98383.10
2022-10-01T01:32:50.181Z,98383.82
2022-10-01T01:35:24.415Z,98391.23
2022-10-01T01:37:56.740Z,98397.09
2022-10-01T01:40:26.268Z,98397.14
2022-10-01T01:42:56.432Z,98393.44
2022-10-01T01:45:28.942Z,98388.66
2022-10-01T01:47:59.668Z,98392.33
2022-10-01T01:50:34.522Z,98387.02
2022-10-01T01:53:03.058Z,98387.33
2022-10-01T01:55:32.505Z,98389.27
2022-10-01T01:58:01.621Z,98396.86
2022-10-01T02:00:30.469Z,98395.97
2022-10-01T02:02:59.109Z,98395.48
2022-10-01T02:05:41.687Z,98395.70
2022-10-01T02:08:25.910Z,98393.80
2022-10-01T02:11:16.734Z,98390.47
2022-10-01T02:13:51.572Z,98390.08
2022-10-01T02:16:25.368Z,98387.78
2022-10-01T02:18:59.235Z,98390.11
2022-10-01T02:21:33.388Z,98393.34
2022-10-01T02:24:08.862Z,98393.79
2022-10-01T02:26:40.118Z,98396.98
2022-10-01T02:29:12.576Z,98399.02
2022-10-01T02:31:42.435Z,98403.48
2022-10-01T02:34:19.956Z,98401.75
2022-10-01T02:36:50.064Z,98403.05
2022-10-01T02:39:21.244Z,98411.56
2022-10-01T02:41:53.367Z,98406.36
2022-10-01T02:44:29.664Z,98403.38
2022-10-01T02:47:07.217Z,98402.31
2022-10-01T02:49:39.494Z,98399.16
2022-10-01T02:52:13.023Z,98402.73
2022-10-01T02:54:46.998Z,98409.30
2022-10-01T02:57:22.922Z,98410.11
2022-10-01T02:59:57.686Z,98408.60
2022-10-01T03:02:28.216Z,98405.08
2022-10-01T03:04:59.178Z,98405.96
2022-10-01T03:07:30.611Z,98406.14
2022-10-01T03:10:02.294Z,98404.45
2022-10-01T03:12:32.757Z,98405.02
2022-10-01T03:15:03.390Z,98408.59
2022-10-01T03:17:32.549Z,98406.15
2022-10-01T03:20:03.461Z,98399.82
2022-10-01T03:22:33.029Z,98399.63
2022-10-01T03:25:03.354Z,98399.09
2022-10-01T03:27:34.408Z,98401.05
2022-10-01T03:30:08.084Z,98400.54
2022-10-01T03:32:37.578Z,98399.53
2022-10-01T03:35:09.287Z,98394.63
2022-10-01T03:37:39.349Z,98391.48
2022-10-01T03:40:10.403Z,98388.59
2022-10-01T03:42:39.658Z,98386.56
2022-10-01T03:45:10.686Z,98391.00
2022-10-01T03:47:39.351Z,98385.23
2022-10-01T03:50:10.209Z,98388.45
2022-10-01T03:52:38.871Z,98387.08
2022-10-01T03:55:09.584Z,98380.06
2022-10-01T03:57:40.225Z,98375.73
2022-10-01T04:00:13.455Z,98368.73
2022-10-01T04:02:42.292Z,98366.66
2022-10-01T04:05:11.804Z,98367.20
2022-10-01T04:07:42.543Z,98367.64
2022-10-01T04:10:13.476Z,98364.52
2022-10-01T04:12:43.691Z,98361.23
2022-10-01T04:15:14.731Z,98357.95
2022-10-01T04:17:46.059Z,98352.19
2022-10-01T04:20:17.529Z,98356.45
2022-10-01T04:22:46.653Z,98354.35
2022-10-01T04:25:15.847Z,98351.58
2022-10-01T04:27:56.584Z,98351.96
2022-10-01T04:30:26.224Z,98348.48
2022-10-01T04:32:55.817Z,98344.86
2022-10-01T04:35:24.665Z,98341.05
2022-10-01T04:38:05.855Z,98340.38
2022-10-01T04:40:36.738Z,98343.56
2022-10-01T04:43:07.844Z,98350.60
2022-10-01T04:45:36.462Z,98348.49
2022-10-01T04:48:08.313Z,98352.33
2022-10-01T04:50:37.372Z,98351.28
2022-10-01T04:53:07.829Z,98353.73
2022-10-01T04:55:36.399Z,98356.88
2022-10-01T04:58:05.075Z,98355.30
2022-10-01T05:00:34.699Z,98358.82
2022-10-01T05:03:03.367Z,98359.50
2022-10-01T05:05:34.691Z,98356.12
2022-10-01T05:08:06.246Z,98364.02
2022-10-01T05:10:36.833Z,98367.35
2022-10-01T05:13:05.533Z,98363.94
2022-10-01T05:15:36.239Z,98361.77
2022-10-01T05:18:04.776Z,98358.90
2022-10-01T05:20:34.084Z,98352.34
2022-10-01T05:23:05.070Z,98357.06
2022-10-01T05:25:34.263Z,98363.50
2022-10-01T05:28:04.729Z,98360.80
2022-10-01T05:30:34.030Z,98356.83
2022-10-01T05:33:04.414Z,98357.14
2022-10-01T05:35:35.780Z,98356.58
2022-10-01T05:38:04.256Z,98358.41
2022-10-01T05:40:33.540Z,98357.15
2022-10-01T05:43:03.951Z,98354.52
2022-10-01T05:45:32.961Z,98352.69
2022-10-01T05:48:06.088Z,98354.16
2022-10-01T05:50:38.624Z,98348.80
2022-10-01T05:53:10.009Z,98345.39
2022-10-01T05:55:38.821Z,98346.73
2022-10-01T05:58:10.150Z,98351.30
2022-10-01T06:00:41.247Z,98352.64
2022-10-01T06:03:12.666Z,98353.30
2022-10-01T06:05:43.632Z,98349.20
2022-10-01T06:08:14.992Z,98353.85
2022-10-01T06:10:44.698Z,98347.92
2022-10-01T06:13:18.088Z,98345.02
2022-10-01T06:15:46.983Z,98338.98
2022-10-01T06:18:17.739Z,98343.28
2022-10-01T06:20:47.942Z,98341.61
2022-10-01T06:23:18.798Z,98341.39
2022-10-01T06:25:47.358Z,98341.61
2022-10-01T06:28:20.007Z,98341.73
2022-10-01T06:30:49.235Z,98340.77
2022-10-01T06:33:19.254Z,98336.55
2022-10-01T06:35:49.711Z,98336.20
2022-10-01T06:38:20.529Z,98336.95
2022-10-01T06:40:53.916Z,98336.70
2022-10-01T06:43:23.378Z,98335.75
2022-10-01T06:45:53.212Z,98334.92
2022-10-01T06:48:23.998Z,98336.45
2022-10-01T06:50:55.425Z,98336.38
2022-10-01T06:53:24.411Z,98338.05
2022-10-01T06:55:55.776Z,98337.37
2022-10-01T06:58:26.352Z,98337.89
2022-10-01T07:01:00.739Z,98338.02
2022-10-01T07:03:32.780Z,98339.70
2022-10-01T07:06:09.178Z,98335.13
2022-10-01T07:08:39.915Z,98329.90
2022-10-01T07:11:10.822Z,98332.03
2022-10-01T07:13:40.526Z,98332.30
2022-10-01T07:16:09.263Z,98329.79
2022-10-01T07:18:40.299Z,98327.12
2022-10-01T07:21:10.504Z,98325.69
2022-10-01T07:23:39.113Z,98327.23
2022-10-01T07:26:08.912Z,98324.44
2022-10-01T07:28:40.306Z,98319.83
2022-10-01T07:31:10.853Z,98312.10
2022-10-01T07:33:39.524Z,98312.12
2022-10-01T07:36:09.465Z,98310.91
2022-10-01T07:38:37.919Z,98314.52
2022-10-01T07:41:07.002Z,98311.04
2022-10-01T07:43:36.010Z,98311.88
2022-10-01T07:46:07.219Z,98314.91
2022-10-01T07:48:36.235Z,98314.45
2022-10-01T07:51:06.208Z,98314.16
2022-10-01T07:53:35.785Z,98312.23
2022-10-01T07:56:06.408Z,98307.43
2022-10-01T07:58:35.984Z,98305.75
2022-10-01T08:01:06.611Z,98311.13
2022-10-01T08:03:35.353Z,98305.10
2022-10-01T08:06:06.302Z,98303.70
2022-10-01T08:08:35.627Z,98301.05
2022-10-01T08:11:07.178Z,98302.95
2022-10-01T08:13:37.358Z,98302.29
2022-10-01T08:16:09.018Z,98302.59
2022-10-01T08:18:40.110Z,98299.77
2022-10-01T08:21:10.528Z,98301.92
2022-10-01T08:23:39.561Z,98294.69
2022-10-01T08:26:11.037Z,98298.30
2022-10-01T08:28:40.769Z,98299.58
2022-10-01T08:31:10.288Z,98292.61
2022-10-01T08:33:40.153Z,98287.63
2022-10-01T08:36:08.959Z,98283.55
2022-10-01T08:38:39.905Z,98285.09
2022-10-01T08:41:23.421Z,98281.29
2022-10-01T08:43:53.031Z,98277.25
2022-10-01T08:46:25.510Z,98271.48
2022-10-01T08:49:03.997Z,98265.09
2022-10-01T08:51:39.992Z,98267.52
2022-10-01T08:54:15.559Z,98261.73
2022-10-01T08:56:46.947Z,98263.83
2022-10-01T08:59:27.306Z,98265.09
2022-10-01T09:02:01.177Z,98261.94
2022-10-01T09:04:31.124Z,98261.31
2022-10-01T09:07:08.545Z,98256.85
2022-10-01T09:09:44.604Z,98252.08
2022-10-01T09:12:25.759Z,98254.98
2022-10-01T09:15:06.415Z,98254.35
2022-10-01T09:17:45.858Z,98244.29
2022-10-01T09:20:22.123Z,98244.77
2022-10-01T09:22:56.842Z,98245.07
2022-10-01T09:25:27.280Z,98246.98
2022-10-01T09:28:02.966Z,98249.20
2022-10-01T09:30:32.711Z,98252.05
2022-10-01T09:33:05.452Z,98248.34
2022-10-01T09:35:41.225Z,98246.59
2022-10-01T09:38:15.758Z,98245.83
2022-10-01T09:40:52.470Z,98240.21
2022-10-01T09:43:22.781Z,98238.21
2022-10-01T09:45:52.218Z,98235.30
2022-10-01T09:48:26.973Z,98229.89
2022-10-01T09:50:59.434Z,98234.29
2022-10-01T09:53:34.772Z,98240.61
2022-10-01T09:56:09.252Z,98242.65
2022-10-01T09:58:40.662Z,98240.06
2022-10-01T10:01:18.612Z,98231.53
2022-10-01T10:03:56.422Z,98228.52
2022-10-01T10:06:27.686Z,98226.39
2022-10-01T10:08:59.747Z,98221.27
2022-10-01T10:11:30.803Z,98220.86
2022-10-01T10:14:00.972Z,98217.49
2022-10-01T10:16:34.569Z,98214.39
2022-10-01T10:19:09.740Z,98209.00
2022-10-01T10:21:38.539Z,98205.16
2022-10-01T10:24:26.079Z,98207.32
2022-10-01T10:26:57.872Z,98199.86
2022-10-01T10:29:29.851Z,98195.51
2022-10-01T10:32:02.969Z,98184.11
2022-10-01T10:34:35.387Z,98182.63
2022-10-01T10:37:10.885Z,98171.54
2022-10-01T10:39:41.997Z,98170.98
2022-10-01T10:42:16.234Z,98165.90
2022-10-01T10:44:46.984Z,98162.25
2022-10-01T10:47:19.712Z,98155.67
2022-10-01T10:49:50.870Z,98150.65
2022-10-01T10:52:23.007Z,98150.20
2022-10-01T10:54:52.707Z,98144.62
2022-10-01T10:57:27.098Z,98138.84
2022-10-01T11:00:02.699Z,98129.20
2022-10-01T11:02:33.182Z,98122.52
2022-10-01T11:05:04.333Z,98120.02
2022-10-01T11:07:35.142Z,98115.14
2022-10-01T11:10:22.229Z,98111.04
2022-10-01T11:13:03.386Z,98096.73
2022-10-01T11:15:48.580Z,98090.60
2022-10-01T11:18:30.106Z,98084.23
2022-10-01T11:21:12.449Z,98081.37
2022-10-01T11:23:53.320Z,98070.73
2022-10-01T11:26:26.598Z,98059.60
2022-10-01T11:29:07.287Z,98053.38
2022-10-01T11:31:41.981Z,98053.95
2022-10-01T11:34:38.881Z,98048.54
2022-10-01T11:37:17.223Z,98041.84
2022-10-01T11:39:47.313Z,98036.59
2022-10-01T11:42:21.498Z,98031.73
2022-10-01T11:45:00.548Z,98031.51
2022-10-01T11:47:34.203Z,98035.08
2022-10-01T11:50:04.946Z,98031.81
2022-10-01T11:52:38.098Z,98030.36
2022-10-01T11:55:32.168Z,98028.35
2022-10-01T11:58:23.238Z,98023.66
2022-10-01T12:00:58.095Z,98016.83
2022-10-01T12:03:32.902Z,98018.86
2022-10-01T12:06:02.785Z,98016.39
2022-10-01T12:08:33.500Z,98017.48
2022-10-01T12:11:15.792Z,98012.40
2022-10-01T12:13:54.560Z,98008.61
2022-10-01T12:16:31.069Z,98006.95
2022-10-01T12:19:04.100Z,98006.13
2022-10-01T12:21:39.627Z,98002.36
2022-10-01T12:24:15.116Z,98005.27
2022-10-01T12:26:53.727Z,98003.64
2022-10-01T12:29:26.328Z,97999.98
2022-10-01T12:32:00.157Z,97994.35
2022-10-01T12:34:36.111Z,97995.16
2022-10-01T12:37:15.851Z,97992.45
2022-10-01T12:39:53.967Z,97983.92
2022-10-01T12:42:47.347Z,97980.70
2022-10-01T12:45:25.497Z,97982.55
2022-10-01T12:48:02.692Z,97980.39
2022-10-01T12:50:39.045Z,97977.48
2022-10-01T12:53:20.239Z,97976.99
2022-10-01T12:55:57.009Z,97981.38
2022-10-01T12:58:57.301Z,97979.37
2022-10-01T13:01:40.558Z,97977.23
2022-10-01T13:04:26.157Z,97973.30
2022-10-01T13:07:07.695Z,97963.23
2022-10-01T13:09:46.588Z,97967.52
2022-10-01T13:12:32.419Z,97961.20
2022-10-01T13:15:02.047Z,97960.85
2022-10-01T13:17:36.515Z,97959.59
2022-10-01T13:20:12.188Z,97964.55
2022-10-01T13:22:45.392Z,97957.89
2022-10-01T13:25:27.133Z,97955.74
2022-10-01T13:28:03.676Z,97953.58
2022-10-01T13:30:41.397Z,97953.48
2022-10-01T13:33:23.996Z,97950.64
2022-10-01T13:35:58.180Z,97945.38
2022-10-01T13:38:43.294Z,97940.19
2022-10-01T13:41:20.991Z,97938.77
2022-10-01T13:43:59.409Z,97939.52
2022-10-01T13:46:33.388Z,97937.46
2022-10-01T13:49:07.199Z,97936.52
2022-10-01T13:51:41.352Z,97935.14
2022-10-01T13:54:24.046Z,97930.54
2022-10-01T13:57:07.459Z,97929.44
2022-10-01T13:59:39.117Z,97924.55
2022-10-01T14:02:28.893Z,97922.37
2022-10-01T14:05:08.160Z,97928.11
2022-10-01T14:07:39.385Z,97925.70
2022-10-01T14:10:13.505Z,97925.14
2022-10-01T14:13:05.385Z,97921.09
2022-10-01T14:16:02.893Z,97921.10
2022-10-01T14:18:36.622Z,97918.21
2022-10-01T14:21:18.094Z,97916.65
2022-10-01T14:23:53.558Z,97909.56
2022-10-01T14:26:29.290Z,97906.05
2022-10-01T14:29:06.461Z,97905.75
2022-10-01T14:31:47.434Z,97903.13
2022-10-01T14:34:43.663Z,97900.96
2022-10-01T14:37:17.365Z,97891.84
2022-10-01T14:39:46.893Z,97881.89
2022-10-01T14:42:18.129Z,97876.20
2022-10-01T14:44:47.742Z,97875.04
2022-10-01T14:47:20.573Z,97868.21
2022-10-01T14:49:51.876Z,97865.89
2022-10-01T14:52:25.369Z,97864.65
2022-10-01T14:54:59.618Z,97867.23
2022-10-01T14:57:30.551Z,97859.05
2022-10-01T15:00:07.499Z,97857.70
2022-10-01T15:02:46.296Z,97853.39
2022-10-01T15:05:25.047Z,97857.40
2022-10-01T15:07:56.659Z,97859.70
2022-10-01T15:10:27.037Z,97854.51
2022-10-01T15:12:56.976Z,97850.75
2022-10-01T15:15:31.974Z,97845.77
2022-10-01T15:18:03.115Z,97846.73
2022-10-01T15:20:34.564Z,97839.13
2022-10-01T15:23:07.365Z,97842.77
2022-10-01T15:25:37.360Z,97841.46
2022-10-01T15:28:29.606Z,97838.05
2022-10-01T15:31:04.779Z,97843.20
2022-10-01T15:33:35.537Z,97843.92
2022-10-01T15:36:06.479Z,97847.28
2022-10-01T15:38:36.906Z,97850.19
2022-10-01T15:41:30.008Z,97848.11
2022-10-01T15:43:57.979Z,97848.86
2022-10-01T15:46:34.209Z,97850.06
2022-10-01T15:49:17.323Z,97848.46
2022-10-01T15:52:07.288Z,97848.94
2022-10-01T15:54:37.718Z,97846.42
2022-10-01T15:57:08.809Z,97846.70
2022-10-01T15:59:40.796Z,97843.74
2022-10-01T16:02:18.011Z,97844.05
2022-10-01T16:04:50.506Z,97848.21
2022-10-01T16:07:29.721Z,97842.70
2022-10-01T16:10:14.744Z,97847.08
2022-10-01T16:12:44.620Z,97844.05
2022-10-01T16:15:26.115Z,97839.27
2022-10-01T16:17:57.534Z,97837.17
2022-10-01T16:20:37.976Z,97837.88
2022-10-01T16:23:35.506Z,97837.27
2022-10-01T16:26:11.962Z,97838.13
2022-10-01T16:28:41.049Z,97838.13
2022-10-01T16:31:09.775Z,97835.38
2022-10-01T16:33:38.346Z,97829.27
2022-10-01T16:36:13.998Z,97823.65
2022-10-01T16:38:45.196Z,97816.10
2022-10-01T16:41:19.120Z,97819.27
2022-10-01T16:43:50.163Z,97820.42
2022-10-01T16:46:19.912Z,97816.35
2022-10-01T16:48:51.163Z,97821.86
2022-10-01T16:51:20.019Z,97822.48
2022-10-01T16:53:54.807Z,97820.94
2022-10-01T16:56:27.336Z,97820.42
2022-10-01T16:58:57.280Z,97817.64
2022-10-01T17:01:32.675Z,97819.81
2022-10-01T17:04:02.718Z,97812.84
2022-10-01T17:06:33.428Z,97809.07
2022-10-01T17:09:04.572Z,97810.17
2022-10-01T17:11:35.549Z,97805.71
2022-10-01T17:14:08.290Z,97801.21
2022-10-01T17:16:37.439Z,97798.23
2022-10-01T17:19:08.170Z,97798.46
2022-10-01T17:21:38.716Z,97799.04
2022-10-01T17:24:10.411Z,97795.71
2022-10-01T17:26:42.315Z,97793.69
2022-10-01T17:29:12.955Z,97796.38
2022-10-01T17:31:50.012Z,97792.61
2022-10-01T17:34:20.589Z,97793.94
2022-10-01T17:36:51.291Z,97791.28
2022-10-01T17:39:21.939Z,97786.39
2022-10-01T17:41:51.640Z,97785.95
2022-10-01T17:44:22.856Z,97780.73
2022-10-01T17:46:53.342Z,97780.67
2022-10-01T17:49:23.763Z,97781.45
2022-10-01T17:51:53.811Z,97787.88
2022-10-01T17:54:23.397Z,97787.95
2022-10-01T17:56:54.321Z,97785.63
2022-10-01T17:59:23.685Z,97784.53
2022-10-01T18:01:54.092Z,97782.50
2022-10-01T18:04:25.069Z,97784.48
2022-10-01T18:06:59.068Z,97789.23
2022-10-01T18:09:32.440Z,97791.80
2022-10-01T18:12:02.902Z,97800.98
2022-10-01T18:14:32.687Z,97802.10
2022-10-01T18:17:02.830Z,97805.19
2022-10-01T18:22:23.550Z,97812.72
2022-10-01T18:24:52.303Z,97814.72
2022-10-01T18:27:24.042Z,97812.38
2022-10-01T18:29:54.927Z,97818.03
2022-10-01T18:32:25.194Z,97817.38
2022-10-01T18:34:58.358Z,97833.34
2022-10-01T18:37:39.071Z,97846.63
2022-10-01T18:40:15.218Z,97853.54
2022-10-01T18:42:48.981Z,97860.27
2022-10-01T18:45:21.313Z,97863.62
2022-10-01T18:48:03.967Z,97870.73
2022-10-01T18:50:40.608Z,97870.36
2022-10-01T18:53:26.354Z,97872.44
2022-10-01T18:56:20.057Z,97872.86
2022-10-01T18:59:21.802Z,97879.61
2022-10-01T19:02:02.558Z,97879.95
2022-10-01T19:04:52.994Z,97881.82
2022-10-01T19:07:33.603Z,97880.86
2022-10-01T19:10:10.135Z,97885.91
2022-10-01T19:12:50.137Z,97889.65
2022-10-01T19:15:30.991Z,97893.95
2022-10-01T19:18:14.693Z,97899.10
2022-10-01T19:21:04.281Z,97900.40
2022-10-01T19:24:09.259Z,97905.61
2022-10-01T19:26:43.090Z,97914.42
2022-10-01T19:29:25.189Z,97916.41
2022-10-01T19:31:58.957Z,97922.65
2022-10-01T19:34:33.182Z,97925.26
2022-10-01T19:37:10.482Z,97932.95
2022-10-01T19:39:42.845Z,97935.34
2022-10-01T19:42:16.857Z,97933.31
2022-10-01T19:44:55.533Z,97931.29
2022-10-01T19:47:31.715Z,97935.58
2022-10-01T19:50:06.741Z,97936.15
2022-10-01T19:52:38.023Z,97934.39
2022-10-01T19:55:16.730Z,97934.00
2022-10-01T19:57:48.045Z,97932.85
2022-10-01T20:00:21.106Z,97933.17
2022-10-01T20:02:56.652Z,97933.13
2022-10-01T20:05:29.153Z,97934.07
2022-10-01T20:08:06.501Z,97930.98
2022-10-01T20:10:39.184Z,97930.70
2022-10-01T20:13:22.243Z,97933.17
2022-10-01T20:15:58.595Z,97938.53
2022-10-01T20:18:32.337Z,97942.16
2022-10-01T20:21:13.966Z,97939.62
2022-10-01T20:23:46.847Z,97940.54
2022-10-01T20:26:26.617Z,97945.67
2022-10-01T20:29:18.742Z,97949.77
2022-10-01T20:31:55.176Z,97951.42
2022-10-01T20:34:31.935Z,97946.33
2022-10-01T20:37:13.744Z,97949.35
2022-10-01T20:39:48.476Z,97953.05
2022-10-01T20:42:24.911Z,97953.42
2022-10-01T20:44:55.064Z,97953.92
2022-10-01T20:47:31.174Z,97954.63
2022-10-01T20:50:09.125Z,97954.48
2022-10-01T20:52:44.229Z,97953.26
2022-10-01T20:55:18.639Z,97955.89
2022-10-01T20:57:52.065Z,97962.61
2022-10-01T21:00:23.043Z,97960.25
2022-10-01T21:02:59.639Z,97960.48
2022-10-01T21:05:32.587Z,97964.91
2022-10-01T21:08:06.191Z,97966.34
2022-10-01T21:10:39.691Z,97962.98
2022-10-01T21:13:16.203Z,97968.55
2022-10-01T21:15:54.275Z,97971.58
2022-10-01T21:18:34.327Z,97970.34
2022-10-01T21:21:11.333Z,97976.31
2022-10-01T21:23:48.958Z,97977.89
2022-10-01T21:26:24.903Z,97980.67
2022-10-01T21:29:22.134Z,97981.75
2022-10-01T21:32:01.039Z,97981.94
2022-10-01T21:34:34.471Z,97978.45
2022-10-01T21:37:10.401Z,97978.85
2022-10-01T21:39:46.605Z,97981.52
2022-10-01T21:42:17.300Z,97983.27
2022-10-01T21:45:06.524Z,97983.95
2022-10-01T21:47:54.039Z,97979.69
2022-10-01T21:50:35.743Z,97980.20
2022-10-01T21:53:16.089Z,97983.86
2022-10-01T21:56:09.590Z,97984.74
2022-10-01T21:58:50.959Z,97983.65
2022-10-01T22:01:27.651Z,97985.73
2022-10-01T22:04:01.472Z,97988.33
2022-10-01T22:06:35.538Z,97991.09
2022-10-01T22:09:08.978Z,97988.95
2022-10-01T22:11:42.166Z,97991.90
2022-10-01T22:14:16.279Z,97992.54
2022-10-01T22:16:49.883Z,97994.80
2022-10-01T22:19:22.798Z,97997.75
2022-10-01T22:21:56.360Z,97997.56
2022-10-01T22:24:30.659Z,98003.20
2022-10-01T22:27:05.098Z,98000.50
2022-10-01T22:29:42.708Z,97999.92
2022-10-01T22:32:15.558Z,98002.70
2022-10-01T22:34:46.828Z,98001.45
2022-10-01T22:37:20.568Z,97997.79
2022-10-01T22:39:55.104Z,97998.82
2022-10-01T22:42:29.767Z,98001.37
2022-10-01T22:45:06.686Z,98006.48
2022-10-01T22:48:04.717Z,98002.48
2022-10-01T22:50:40.929Z,98008.30
2022-10-01T22:53:28.592Z,98009.50
2022-10-01T22:55:58.201Z,98011.80
2022-10-01T22:58:45.720Z,98014.25
2022-10-01T23:01:18.602Z,98017.58
2022-10-01T23:03:55.744Z,98012.31
2022-10-01T23:06:30.988Z,98013.04
2022-10-01T23:09:05.147Z,98015.69
2022-10-01T23:11:46.232Z,98015.31
2022-10-01T23:14:26.299Z,98014.94
2022-10-01T23:16:59.052Z,98020.78
2022-10-01T23:19:35.613Z,98022.02
2022-10-01T23:22:11.476Z,98027.13
2022-10-01T23:24:57.161Z,98026.30
2022-10-01T23:27:32.800Z,98035.36
2022-10-01T23:30:11.081Z,98034.67
2022-10-01T23:33:06.937Z,98042.81
2022-10-01T23:35:45.638Z,98039.77
2022-10-01T23:38:28.269Z,98046.08
2022-10-01T23:41:05.432Z,98046.58
2022-10-01T23:43:39.725Z,98044.60
2022-10-01T23:46:11.413Z,98043.14
2022-10-01T23:48:44.048Z,98047.83
2022-10-01T23:51:20.004Z,98047.76
2022-10-01T23:53:55.441Z,98050.88
2022-10-01T23:56:46.631Z,98053.34
2022-10-01T23:59:20.406Z,98055.27
